sensor_id;sensor_type;location;lat;lon;timestamp;pressure;altitude;pressure_sealevel;temperature;humidity
8051;BME280;4068;42.158;24.732;2022-09-01T00:01:04;99354.50;;;19.40;100.00
8051;BME280;4068;42.158;24.732;2022-09-01T00:03:33;99350.34;;;19.38;100.00
8051;BME280;4068;42.158;24.732;2022-09-01T00:05:59;99343.41;;;19.28;100.00
8051;BME280;4068;42.158;24.732;2022-09-01T00:08:24;99320.56;;;19.09;100.00
8051;BME280;4068;42.158;24.732;2022-09-01T00:10:50;99333.75;;;19.19;100.00
8051;BME280;4068;42.158;24.732;2022-09-01T00:13:16;99321.63;;;19.08;100.00
8051;BME280;4068;42.158;24.732;2022-09-01T00:15:41;99334.94;;;19.17;100.00
8051;BME280;4068;42.158;24.732;2022-09-01T00:18:07;99333.94;;;19.18;100.00
8051;BME280;4068;42.158;24.732;2022-09-01T00:20:33;99334.69;;;19.11;100.00
8051;BME280;4068;42.158;24.732;2022-09-01T00:22:58;99338.38;;;19.10;100.00
8051;BME280;4068;42.158;24.732;2022-09-01T00:25:26;99328.94;;;19.14;100.00
8051;BME280;4068;42.158;24.732;2022-09-01T00:27:52;99311.69;;;19.09;100.00
8051;BME280;4068;42.158;24.732;2022-09-01T00:30:19;99326.25;;;19.14;100.00
8051;BME280;4068;42.158;24.732;2022-09-01T00:32:44;99333.00;;;19.10;100.00
8051;BME280;4068;42.158;24.732;2022-09-01T00:35:16;99320.69;;;19.01;100.00
8051;BME280;4068;42.158;24.732;2022-09-01T00:37:42;99340.13;;;19.18;100.00
8051;BME280;4068;42.158;24.732;2022-09-01T00:40:09;99347.06;;;19.12;100.00
8051;BME280;4068;42.158;24.732;2022-09-01T00:42:38;99345.81;;;19.08;100.00
8051;BME280;4068;42.158;24.732;2022-09-01T00:45:05;99341.69;;;18.97;100.00
8051;BME280;4068;42.158;24.732;2022-09-01T00:47:31;99338.19;;;18.97;100.00
8051;BME280;4068;42.158;24.732;2022-09-01T00:49:57;99335.84;;;18.94;100.00
8051;BME280;4068;42.158;24.732;2022-09-01T00:52:39;99334.56;;;18.90;100.00
8051;BME280;4068;42.158;24.732;2022-09-01T00:55:28;99332.22;;;18.87;100.00
8051;BME280;4068;42.158;24.732;2022-09-01T00:57:55;99334.66;;;18.73;100.00
8051;BME280;4068;42.158;24.732;2022-09-01T01:00:24;99326.84;;;18.49;100.00
8051;BME280;4068;42.158;24.732;2022-09-01T01:02:51;99331.28;;;18.56;100.00
8051;BME280;4068;42.158;24.732;2022-09-01T01:05:32;99346.66;;;18.62;100.00
8051;BME280;4068;42.158;24.732;2022-09-01T01:07:59;99351.88;;;18.64;100.00
8051;BME280;4068;42.158;24.732;2022-09-01T01:10:26;99334.53;;;18.52;100.00
8051;BME280;4068;42.158;24.732;2022-09-01T01:12:57;99318.28;;;18.45;100.00
8051;BME280;4068;42.158;24.732;2022-09-01T01:15:27;99336.53;;;18.50;100.00
8051;BME280;4068;42.158;24.732;2022-09-01T01:17:53;99336.91;;;18.46;100.00
8051;BME280;4068;42.158;24.732;2022-09-01T01:20:21;99339.94;;;18.43;100.00
8051;BME280;4068;42.158;24.732;2022-09-01T01:23:20;99332.44;;;18.39;100.00
8051;BME280;4068;42.158;24.732;2022-09-01T01:25:53;99329.38;;;18.42;100.00
8051;BME280;4068;42.158;24.732;2022-09-01T01:30:58;99328.06;;;18.38;100.00
8051;BME280;4068;42.158;24.732;2022-09-01T01:33:31;99331.31;;;18.33;100.00
8051;BME280;4068;42.158;24.732;2022-09-01T01:35:58;99321.75;;;18.31;100.00
8051;BME280;4068;42.158;24.732;2022-09-01T01:38:25;99328.03;;;18.23;100.00
8051;BME280;4068;42.158;24.732;2022-09-01T01:40:52;99322.00;;;18.21;100.00
8051;BME280;4068;42.158;24.732;2022-09-01T01:43:20;99331.41;;;18.17;100.00
8051;BME280;4068;42.158;24.732;2022-09-01T01:45:49;99321.41;;;18.10;100.00
8051;BME280;4068;42.158;24.732;2022-09-01T01:48:20;99332.53;;;18.22;100.00
8051;BME280;4068;42.158;24.732;2022-09-01T01:50:48;99323.84;;;18.20;100.00
8051;BME280;4068;42.158;24.732;2022-09-01T01:53:14;99325.34;;;18.23;100.00
8051;BME280;4068;42.158;24.732;2022-09-01T01:55:42;99334.09;;;18.17;100.00
8051;BME280;4068;42.158;24.732;2022-09-01T01:58:08;99328.31;;;18.05;100.00
8051;BME280;4068;42.158;24.732;2022-09-01T02:00:36;99331.34;;;18.02;100.00
8051;BME280;4068;42.158;24.732;2022-09-01T02:03:03;99330.25;;;18.11;100.00
8051;BME280;4068;42.158;24.732;2022-09-01T02:05:31;99334.75;;;18.19;100.00
8051;BME280;4068;42.158;24.732;2022-09-01T02:08:03;99329.56;;;18.40;100.00
8051;BME280;4068;42.158;24.732;2022-09-01T02:10:34;99334.56;;;18.43;100.00
8051;BME280;4068;42.158;24.732;2022-09-01T02:13:02;99339.53;;;18.32;100.00
8051;BME280;4068;42.158;24.732;2022-09-01T02:15:41;99342.03;;;18.33;100.00
8051;BME280;4068;42.158;24.732;2022-09-01T02:18:22;99325.25;;;18.31;100.00
8051;BME280;4068;42.158;24.732;2022-09-01T02:20:50;99332.31;;;18.32;100.00
8051;BME280;4068;42.158;24.732;2022-09-01T02:23:17;99336.72;;;18.25;100.00
8051;BME280;4068;42.158;24.732;2022-09-01T02:25:48;99340.72;;;18.29;100.00
8051;BME280;4068;42.158;24.732;2022-09-01T02:28:16;99352.47;;;18.28;100.00
8051;BME280;4068;42.158;24.732;2022-09-01T02:30:50;99346.09;;;18.29;100.00
8051;BME280;4068;42.158;24.732;2022-09-01T02:33:18;99343.00;;;18.17;100.00
8051;BME280;4068;42.158;24.732;2022-09-01T02:35:50;99345.13;;;18.22;100.00
8051;BME280;4068;42.158;24.732;2022-09-01T02:38:16;99342.28;;;18.23;100.00
8051;BME280;4068;42.158;24.732;2022-09-01T02:40:45;99334.88;;;18.25;100.00
8051;BME280;4068;42.158;24.732;2022-09-01T02:43:11;99333.69;;;18.28;100.00
8051;BME280;4068;42.158;24.732;2022-09-01T02:45:38;99326.53;;;18.20;100.00
8051;BME280;4068;42.158;24.732;2022-09-01T02:48:04;99337.03;;;18.30;100.00
8051;BME280;4068;42.158;24.732;2022-09-01T02:50:34;99339.81;;;18.37;100.00
8051;BME280;4068;42.158;24.732;2022-09-01T02:53:00;99341.53;;;18.29;100.00
8051;BME280;4068;42.158;24.732;2022-09-01T02:55:26;99347.47;;;18.25;100.00
8051;BME280;4068;42.158;24.732;2022-09-01T02:57:52;99329.84;;;17.99;100.00
8051;BME280;4068;42.158;24.732;2022-09-01T03:00:23;99346.25;;;18.04;100.00
8051;BME280;4068;42.158;24.732;2022-09-01T03:02:57;99341.91;;;18.03;100.00
8051;BME280;4068;42.158;24.732;2022-09-01T03:05:25;99337.00;;;18.07;100.00
8051;BME280;4068;42.158;24.732;2022-09-01T03:07:58;99328.66;;;18.02;100.00
8051;BME280;4068;42.158;24.732;2022-09-01T03:10:27;99331.13;;;18.11;100.00
8051;BME280;4068;42.158;24.732;2022-09-01T03:12:56;99318.88;;;18.09;100.00
8051;BME280;4068;42.158;24.732;2022-09-01T03:15:22;99335.22;;;18.22;100.00
8051;BME280;4068;42.158;24.732;2022-09-01T03:17:48;99347.00;;;18.21;100.00
8051;BME280;4068;42.158;24.732;2022-09-01T03:20:15;99346.69;;;18.16;100.00
8051;BME280;4068;42.158;24.732;2022-09-01T03:22:41;99348.53;;;18.16;100.00
8051;BME280;4068;42.158;24.732;2022-09-01T03:25:08;99329.22;;;17.89;100.00
8051;BME280;4068;42.158;24.732;2022-09-01T03:27:33;99346.19;;;18.13;100.00
8051;BME280;4068;42.158;24.732;2022-09-01T03:29:59;99352.22;;;18.15;100.00
8051;BME280;4068;42.158;24.732;2022-09-01T03:32:24;99352.59;;;18.11;100.00
8051;BME280;4068;42.158;24.732;2022-09-01T03:34:50;99333.41;;;17.91;100.00
8051;BME280;4068;42.158;24.732;2022-09-01T03:37:15;99358.19;;;18.02;100.00
8051;BME280;4068;42.158;24.732;2022-09-01T03:39:41;99346.31;;;17.88;100.00
8051;BME280;4068;42.158;24.732;2022-09-01T03:42:07;99367.59;;;17.89;100.00
8051;BME280;4068;42.158;24.732;2022-09-01T03:44:36;99357.22;;;17.86;100.00
8051;BME280;4068;42.158;24.732;2022-09-01T03:47:04;99347.53;;;17.77;100.00
8051;BME280;4068;42.158;24.732;2022-09-01T03:49:34;99351.53;;;17.81;100.00
8051;BME280;4068;42.158;24.732;2022-09-01T03:52:02;99357.38;;;17.85;100.00
8051;BME280;4068;42.158;24.732;2022-09-01T03:54:27;99360.91;;;17.85;100.00
8051;BME280;4068;42.158;24.732;2022-09-01T03:56:54;99350.66;;;17.89;100.00
8051;BME280;4068;42.158;24.732;2022-09-01T03:59:22;99356.81;;;18.06;100.00
8051;BME280;4068;42.158;24.732;2022-09-01T04:01:48;99359.50;;;18.06;100.00
8051;BME280;4068;42.158;24.732;2022-09-01T04:04:14;99365.66;;;18.15;100.00
8051;BME280;4068;42.158;24.732;2022-09-01T04:06:40;99358.75;;;18.20;100.00
8051;BME280;4068;42.158;24.732;2022-09-01T04:09:06;99360.41;;;18.21;100.00
8051;BME280;4068;42.158;24.732;2022-09-01T04:11:32;99362.91;;;18.23;100.00
8051;BME280;4068;42.158;24.732;2022-09-01T04:13:59;99359.75;;;18.19;100.00
8051;BME280;4068;42.158;24.732;2022-09-01T04:16:26;99362.06;;;18.22;100.00
8051;BME280;4068;42.158;24.732;2022-09-01T04:19:13;99362.84;;;18.31;100.00
8051;BME280;4068;42.158;24.732;2022-09-01T04:21:51;99352.28;;;18.29;100.00
8051;BME280;4068;42.158;24.732;2022-09-01T04:24:19;99353.38;;;18.43;100.00
8051;BME280;4068;42.158;24.732;2022-09-01T04:26:46;99359.69;;;18.51;100.00
8051;BME280;4068;42.158;24.732;2022-09-01T04:29:13;99336.53;;;18.50;100.00
8051;BME280;4068;42.158;24.732;2022-09-01T04:31:39;99352.53;;;18.66;100.00
8051;BME280;4068;42.158;24.732;2022-09-01T04:34:05;99357.47;;;18.77;100.00
8051;BME280;4068;42.158;24.732;2022-09-01T04:36:41;99368.06;;;18.94;100.00
8051;BME280;4068;42.158;24.732;2022-09-01T04:39:09;99360.81;;;19.03;100.00
8051;BME280;4068;42.158;24.732;2022-09-01T04:41:40;99333.53;;;18.91;100.00
8051;BME280;4068;42.158;24.732;2022-09-01T04:44:07;99366.25;;;19.09;100.00
8051;BME280;4068;42.158;24.732;2022-09-01T04:46:35;99371.75;;;19.16;100.00
8051;BME280;4068;42.158;24.732;2022-09-01T04:49:04;99367.50;;;19.22;100.00
8051;BME280;4068;42.158;24.732;2022-09-01T04:51:39;99368.03;;;19.32;100.00
8051;BME280;4068;42.158;24.732;2022-09-01T04:54:06;99384.66;;;19.51;100.00
8051;BME280;4068;42.158;24.732;2022-09-01T04:56:35;99372.22;;;19.64;100.00
8051;BME280;4068;42.158;24.732;2022-09-01T04:59:01;99375.72;;;19.65;100.00
8051;BME280;4068;42.158;24.732;2022-09-01T05:01:32;99378.81;;;19.77;100.00
8051;BME280;4068;42.158;24.732;2022-09-01T05:04:12;99373.03;;;19.95;100.00
8051;BME280;4068;42.158;24.732;2022-09-01T05:06:41;99380.38;;;20.01;100.00
8051;BME280;4068;42.158;24.732;2022-09-01T05:09:09;99375.91;;;20.08;100.00
8051;BME280;4068;42.158;24.732;2022-09-01T05:11:36;99379.50;;;20.15;100.00
8051;BME280;4068;42.158;24.732;2022-09-01T05:14:03;99381.81;;;20.18;100.00
8051;BME280;4068;42.158;24.732;2022-09-01T05:16:29;99350.53;;;20.17;100.00
8051;BME280;4068;42.158;24.732;2022-09-01T05:18:55;99366.38;;;20.49;100.00
8051;BME280;4068;42.158;24.732;2022-09-01T05:21:22;99370.34;;;20.68;100.00
8051;BME280;4068;42.158;24.732;2022-09-01T05:23:51;99372.50;;;20.79;100.00
8051;BME280;4068;42.158;24.732;2022-09-01T05:26:21;99369.66;;;20.88;100.00
8051;BME280;4068;42.158;24.732;2022-09-01T05:28:51;99372.22;;;20.96;100.00
8051;BME280;4068;42.158;24.732;2022-09-01T05:31:22;99380.03;;;21.19;100.00
8051;BME280;4068;42.158;24.732;2022-09-01T05:33:49;99365.53;;;21.20;100.00
8051;BME280;4068;42.158;24.732;2022-09-01T05:36:19;99375.38;;;21.34;100.00
8051;BME280;4068;42.158;24.732;2022-09-01T05:38:46;99380.66;;;21.49;100.00
8051;BME280;4068;42.158;24.732;2022-09-01T05:41:14;99382.84;;;21.61;100.00
8051;BME280;4068;42.158;24.732;2022-09-01T05:43:41;99382.66;;;21.69;100.00
8051;BME280;4068;42.158;24.732;2022-09-01T05:46:10;99389.97;;;21.75;100.00
8051;BME280;4068;42.158;24.732;2022-09-01T05:48:37;99392.69;;;21.82;100.00
8051;BME280;4068;42.158;24.732;2022-09-01T05:51:06;99380.91;;;21.89;100.00
8051;BME280;4068;42.158;24.732;2022-09-01T05:53:32;99398.81;;;22.04;100.00
8051;BME280;4068;42.158;24.732;2022-09-01T05:55:59;99381.78;;;22.03;100.00
8051;BME280;4068;42.158;24.732;2022-09-01T05:58:26;99380.59;;;22.19;100.00
8051;BME280;4068;42.158;24.732;2022-09-01T06:00:53;99390.53;;;22.19;100.00
8051;BME280;4068;42.158;24.732;2022-09-01T06:03:21;99393.53;;;22.37;100.00
8051;BME280;4068;42.158;24.732;2022-09-01T06:05:47;99382.31;;;22.47;99.47
8051;BME280;4068;42.158;24.732;2022-09-01T06:08:24;99372.56;;;22.39;99.11
8051;BME280;4068;42.158;24.732;2022-09-01T06:10:50;99393.13;;;22.47;98.82
8051;BME280;4068;42.158;24.732;2022-09-01T06:13:18;99383.59;;;22.51;98.46
8051;BME280;4068;42.158;24.732;2022-09-01T06:15:47;99372.16;;;22.63;97.68
8051;BME280;4068;42.158;24.732;2022-09-01T06:18:12;99361.16;;;22.64;98.04
8051;BME280;4068;42.158;24.732;2022-09-01T06:20:43;99374.66;;;22.84;96.84
8051;BME280;4068;42.158;24.732;2022-09-01T06:23:09;99376.13;;;22.93;95.63
8051;BME280;4068;42.158;24.732;2022-09-01T06:25:40;99361.97;;;22.98;95.66
8051;BME280;4068;42.158;24.732;2022-09-01T06:28:10;99363.25;;;23.09;95.06
8051;BME280;4068;42.158;24.732;2022-09-01T06:30:37;99380.06;;;23.38;92.79
8051;BME280;4068;42.158;24.732;2022-09-01T06:33:04;99374.00;;;23.49;91.52
8051;BME280;4068;42.158;24.732;2022-09-01T06:35:34;99380.25;;;23.56;91.52
8051;BME280;4068;42.158;24.732;2022-09-01T06:37:59;99382.69;;;23.71;90.52
8051;BME280;4068;42.158;24.732;2022-09-01T06:40:27;99380.56;;;23.87;89.54
8051;BME280;4068;42.158;24.732;2022-09-01T06:42:53;99364.53;;;23.78;89.14
8051;BME280;4068;42.158;24.732;2022-09-01T06:45:22;99377.25;;;23.91;89.28
8051;BME280;4068;42.158;24.732;2022-09-01T06:47:49;99365.53;;;23.98;89.04
8051;BME280;4068;42.158;24.732;2022-09-01T06:50:19;99376.72;;;24.08;87.98
8051;BME280;4068;42.158;24.732;2022-09-01T06:52:47;99369.19;;;24.17;88.37
8051;BME280;4068;42.158;24.732;2022-09-01T06:55:14;99365.69;;;24.09;88.16
8051;BME280;4068;42.158;24.732;2022-09-01T06:57:41;99361.84;;;24.24;87.32
8051;BME280;4068;42.158;24.732;2022-09-01T07:00:16;99366.53;;;24.42;87.01
8051;BME280;4068;42.158;24.732;2022-09-01T07:02:44;99372.56;;;24.44;87.09
8051;BME280;4068;42.158;24.732;2022-09-01T07:05:11;99379.22;;;24.48;86.81
8051;BME280;4068;42.158;24.732;2022-09-01T07:07:36;99370.00;;;24.56;87.01
8051;BME280;4068;42.158;24.732;2022-09-01T07:10:03;99360.19;;;24.61;86.87
8051;BME280;4068;42.158;24.732;2022-09-01T07:12:29;99369.66;;;24.77;86.34
8051;BME280;4068;42.158;24.732;2022-09-01T07:14:56;99362.47;;;24.90;84.83
8051;BME280;4068;42.158;24.732;2022-09-01T07:17:23;99368.44;;;24.98;84.74
8051;BME280;4068;42.158;24.732;2022-09-01T07:19:50;99357.75;;;25.04;85.50
8051;BME280;4068;42.158;24.732;2022-09-01T07:22:16;99352.72;;;25.07;85.33
8051;BME280;4068;42.158;24.732;2022-09-01T07:24:41;99346.91;;;25.22;85.62
8051;BME280;4068;42.158;24.732;2022-09-01T07:27:07;99361.91;;;25.31;85.56
8051;BME280;4068;42.158;24.732;2022-09-01T07:29:33;99335.59;;;25.25;86.10
8051;BME280;4068;42.158;24.732;2022-09-01T07:31:59;99346.09;;;25.47;85.27
8051;BME280;4068;42.158;24.732;2022-09-01T07:34:25;99341.41;;;25.54;84.89
8051;BME280;4068;42.158;24.732;2022-09-01T07:36:51;99355.28;;;25.64;84.13
8051;BME280;4068;42.158;24.732;2022-09-01T07:39:23;99349.75;;;25.71;83.16
8051;BME280;4068;42.158;24.732;2022-09-01T07:41:49;99327.66;;;25.49;82.83
8051;BME280;4068;42.158;24.732;2022-09-01T07:44:15;99344.34;;;25.71;82.66
8051;BME280;4068;42.158;24.732;2022-09-01T07:46:41;99345.16;;;25.53;82.64
8051;BME280;4068;42.158;24.732;2022-09-01T07:49:07;99341.69;;;25.64;82.49
8051;BME280;4068;42.158;24.732;2022-09-01T07:51:33;99315.53;;;25.70;82.09
8051;BME280;4068;42.158;24.732;2022-09-01T07:53:59;99329.75;;;25.84;80.19
8051;BME280;4068;42.158;24.732;2022-09-01T07:56:26;99343.66;;;25.76;80.85
8051;BME280;4068;42.158;24.732;2022-09-01T07:58:55;99335.88;;;25.61;79.82
8051;BME280;4068;42.158;24.732;2022-09-01T08:01:24;99344.56;;;25.70;80.80
8051;BME280;4068;42.158;24.732;2022-09-01T08:03:54;99334.41;;;25.95;78.85
8051;BME280;4068;42.158;24.732;2022-09-01T08:06:22;99339.84;;;26.14;78.43
8051;BME280;4068;42.158;24.732;2022-09-01T08:08:49;99334.66;;;26.24;77.56
8051;BME280;4068;42.158;24.732;2022-09-01T08:11:24;99336.03;;;26.45;75.88
8051;BME280;4068;42.158;24.732;2022-09-01T08:13:52;99326.38;;;26.61;74.69
8051;BME280;4068;42.158;24.732;2022-09-01T08:16:18;99327.75;;;26.52;72.61
8051;BME280;4068;42.158;24.732;2022-09-01T08:18:45;99334.13;;;26.46;72.54
8051;BME280;4068;42.158;24.732;2022-09-01T08:21:13;99333.09;;;26.47;72.65
8051;BME280;4068;42.158;24.732;2022-09-01T08:23:40;99328.59;;;26.64;72.16
8051;BME280;4068;42.158;24.732;2022-09-01T08:26:08;99308.56;;;26.77;72.02
8051;BME280;4068;42.158;24.732;2022-09-01T08:28:34;99301.00;;;26.91;71.33
8051;BME280;4068;42.158;24.732;2022-09-01T08:31:04;99317.41;;;27.20;70.84
8051;BME280;4068;42.158;24.732;2022-09-01T08:33:29;99319.28;;;27.31;69.38
8051;BME280;4068;42.158;24.732;2022-09-01T08:35:55;99319.66;;;27.23;68.86
8051;BME280;4068;42.158;24.732;2022-09-01T08:38:21;99322.59;;;27.33;69.34
8051;BME280;4068;42.158;24.732;2022-09-01T08:40:52;99309.47;;;27.30;68.89
8051;BME280;4068;42.158;24.732;2022-09-01T08:46:27;99301.69;;;27.10;68.45
8051;BME280;4068;42.158;24.732;2022-09-01T08:48:55;99300.97;;;27.15;69.07
8051;BME280;4068;42.158;24.732;2022-09-01T08:51:50;99300.13;;;27.26;69.70
8051;BME280;4068;42.158;24.732;2022-09-01T08:54:23;99303.81;;;27.44;69.17
8051;BME280;4068;42.158;24.732;2022-09-01T08:56:56;99277.22;;;27.63;67.64
8051;BME280;4068;42.158;24.732;2022-09-01T08:59:22;99271.94;;;27.85;67.15
8051;BME280;4068;42.158;24.732;2022-09-01T09:04:46;99276.88;;;28.17;65.65
8051;BME280;4068;42.158;24.732;2022-09-01T09:07:46;99273.03;;;28.30;64.61
8051;BME280;4068;42.158;24.732;2022-09-01T09:15:16;99273.03;;;28.47;64.21
8051;BME280;4068;42.158;24.732;2022-09-01T09:18:18;99270.97;;;28.54;63.87
8051;BME280;4068;42.158;24.732;2022-09-01T09:20:40;99270.38;;;28.86;63.50
8051;BME280;4068;42.158;24.732;2022-09-01T09:23:16;99262.63;;;28.44;63.03
8051;BME280;4068;42.158;24.732;2022-09-01T09:25:45;99259.03;;;28.60;63.00
8051;BME280;4068;42.158;24.732;2022-09-01T09:28:11;99252.78;;;28.59;62.09
8051;BME280;4068;42.158;24.732;2022-09-01T09:30:37;99250.22;;;28.53;62.26
8051;BME280;4068;42.158;24.732;2022-09-01T09:33:04;99255.94;;;28.68;63.08
8051;BME280;4068;42.158;24.732;2022-09-01T09:35:44;99252.88;;;29.04;61.08
8051;BME280;4068;42.158;24.732;2022-09-01T09:41:18;99253.69;;;29.04;60.09
8051;BME280;4068;42.158;24.732;2022-09-01T09:44:26;99247.19;;;29.05;60.07
8051;BME280;4068;42.158;24.732;2022-09-01T09:46:54;99240.41;;;29.30;60.36
8051;BME280;4068;42.158;24.732;2022-09-01T09:49:32;99244.59;;;29.60;59.85
8051;BME280;4068;42.158;24.732;2022-09-01T09:54:32;99239.19;;;29.65;57.12
8051;BME280;4068;42.158;24.732;2022-09-01T09:57:16;99226.50;;;29.54;56.92
8051;BME280;4068;42.158;24.732;2022-09-01T10:02:37;99230.13;;;29.59;56.73
8051;BME280;4068;42.158;24.732;2022-09-01T10:07:50;99218.19;;;29.93;57.47
8051;BME280;4068;42.158;24.732;2022-09-01T10:10:44;99225.91;;;30.01;57.10
8051;BME280;4068;42.158;24.732;2022-09-01T10:13:16;99214.03;;;30.18;56.20
8051;BME280;4068;42.158;24.732;2022-09-01T10:15:54;99218.22;;;30.30;56.28
8051;BME280;4068;42.158;24.732;2022-09-01T10:18:24;99200.69;;;30.26;55.81
8051;BME280;4068;42.158;24.732;2022-09-01T10:20:56;99195.22;;;30.26;56.23
8051;BME280;4068;42.158;24.732;2022-09-01T10:23:24;99194.09;;;30.22;54.90
8051;BME280;4068;42.158;24.732;2022-09-01T10:25:54;99197.69;;;30.28;56.22
8051;BME280;4068;42.158;24.732;2022-09-01T10:28:23;99196.75;;;30.12;57.14
8051;BME280;4068;42.158;24.732;2022-09-01T10:30:51;99197.66;;;30.23;56.98
8051;BME280;4068;42.158;24.732;2022-09-01T10:33:19;99190.75;;;30.48;56.67
8051;BME280;4068;42.158;24.732;2022-09-01T10:35:48;99169.50;;;30.60;56.42
8051;BME280;4068;42.158;24.732;2022-09-01T10:38:20;99195.69;;;30.98;55.75
8051;BME280;4068;42.158;24.732;2022-09-01T10:40:47;99196.31;;;31.06;54.55
8051;BME280;4068;42.158;24.732;2022-09-01T10:48:50;99184.56;;;31.15;55.46
8051;BME280;4068;42.158;24.732;2022-09-01T10:53:48;99186.28;;;31.37;54.50
8051;BME280;4068;42.158;24.732;2022-09-01T10:56:36;99182.69;;;31.31;53.36
8051;BME280;4068;42.158;24.732;2022-09-01T11:04:18;99166.78;;;31.23;54.07
8051;BME280;4068;42.158;24.732;2022-09-01T11:11:56;99167.75;;;31.70;54.09
8051;BME280;4068;42.158;24.732;2022-09-01T11:14:27;99166.09;;;31.69;52.60
8051;BME280;4068;42.158;24.732;2022-09-01T11:22:32;99149.59;;;31.48;52.73
8051;BME280;4068;42.158;24.732;2022-09-01T11:25:39;99144.19;;;31.64;52.23
8051;BME280;4068;42.158;24.732;2022-09-01T11:35:34;99140.34;;;31.80;51.72
8051;BME280;4068;42.158;24.732;2022-09-01T11:38:03;99137.59;;;32.01;51.30
8051;BME280;4068;42.158;24.732;2022-09-01T11:40:33;99130.75;;;32.14;50.31
8051;BME280;4068;42.158;24.732;2022-09-01T11:43:05;99103.03;;;32.10;49.97
8051;BME280;4068;42.158;24.732;2022-09-01T11:45:32;99128.28;;;32.17;49.04
8051;BME280;4068;42.158;24.732;2022-09-01T11:48:09;99127.47;;;32.17;49.46
8051;BME280;4068;42.158;24.732;2022-09-01T11:50:37;99129.91;;;32.13;48.69
8051;BME280;4068;42.158;24.732;2022-09-01T11:53:14;99116.75;;;32.00;48.49
8051;BME280;4068;42.158;24.732;2022-09-01T11:55:48;99124.97;;;31.95;48.23
8051;BME280;4068;42.158;24.732;2022-09-01T12:01:31;99087.69;;;31.83;47.41
8051;BME280;4068;42.158;24.732;2022-09-01T12:03:57;99104.97;;;32.05;47.49
8051;BME280;4068;42.158;24.732;2022-09-01T12:06:28;99095.88;;;32.09;47.67
8051;BME280;4068;42.158;24.732;2022-09-01T12:08:59;99080.84;;;31.71;47.75
8051;BME280;4068;42.158;24.732;2022-09-01T12:11:29;99096.75;;;31.84;47.13
8051;BME280;4068;42.158;24.732;2022-09-01T12:14:06;99089.06;;;31.71;47.24
8051;BME280;4068;42.158;24.732;2022-09-01T12:16:33;99090.97;;;31.75;47.03
8051;BME280;4068;42.158;24.732;2022-09-01T12:19:02;99088.00;;;31.72;47.47
8051;BME280;4068;42.158;24.732;2022-09-01T12:21:37;99071.25;;;31.68;47.61
8051;BME280;4068;42.158;24.732;2022-09-01T12:24:16;99076.19;;;31.97;47.94
8051;BME280;4068;42.158;24.732;2022-09-01T12:26:43;99071.78;;;32.22;46.84
8051;BME280;4068;42.158;24.732;2022-09-01T12:29:10;99074.00;;;32.14;45.08
8051;BME280;4068;42.158;24.732;2022-09-01T12:31:39;99069.31;;;32.10;45.70
8051;BME280;4068;42.158;24.732;2022-09-01T12:34:23;99069.59;;;32.13;46.02
8051;BME280;4068;42.158;24.732;2022-09-01T12:37:08;99071.22;;;32.25;45.59
8051;BME280;4068;42.158;24.732;2022-09-01T12:39:42;99066.53;;;32.30;45.48
8051;BME280;4068;42.158;24.732;2022-09-01T12:50:32;99070.00;;;32.62;43.62
8051;BME280;4068;42.158;24.732;2022-09-01T12:52:58;99061.91;;;32.10;43.62
8051;BME280;4068;42.158;24.732;2022-09-01T12:55:29;99067.94;;;32.07;44.40
8051;BME280;4068;42.158;24.732;2022-09-01T12:57:58;99053.91;;;32.29;44.38
8051;BME280;4068;42.158;24.732;2022-09-01T13:00:31;99053.88;;;32.45;44.72
8051;BME280;4068;42.158;24.732;2022-09-01T13:05:38;99056.16;;;32.88;43.91
8051;BME280;4068;42.158;24.732;2022-09-01T13:08:13;99040.28;;;32.84;43.54
8051;BME280;4068;42.158;24.732;2022-09-01T13:10:46;99050.88;;;33.01;42.33
8051;BME280;4068;42.158;24.732;2022-09-01T13:13:12;99052.69;;;33.16;42.36
8051;BME280;4068;42.158;24.732;2022-09-01T13:15:41;99050.94;;;32.91;42.94
8051;BME280;4068;42.158;24.732;2022-09-01T13:18:08;99049.59;;;32.83;43.01
8051;BME280;4068;42.158;24.732;2022-09-01T13:20:34;99043.09;;;32.64;43.20
8051;BME280;4068;42.158;24.732;2022-09-01T13:23:00;99062.22;;;32.84;43.24
8051;BME280;4068;42.158;24.732;2022-09-01T13:25:27;99061.13;;;32.85;42.42
8051;BME280;4068;42.158;24.732;2022-09-01T13:27:53;99046.38;;;32.61;43.08
8051;BME280;4068;42.158;24.732;2022-09-01T13:30:23;99039.00;;;32.61;43.13
8051;BME280;4068;42.158;24.732;2022-09-01T13:32:52;99010.59;;;32.11;44.09
8051;BME280;4068;42.158;24.732;2022-09-01T13:35:19;99038.63;;;32.13;43.31
8051;BME280;4068;42.158;24.732;2022-09-01T13:37:45;99040.81;;;32.06;43.44
8051;BME280;4068;42.158;24.732;2022-09-01T13:40:11;99039.16;;;32.10;42.96
8051;BME280;4068;42.158;24.732;2022-09-01T13:42:44;99045.16;;;32.12;43.92
8051;BME280;4068;42.158;24.732;2022-09-01T13:45:11;99041.63;;;31.91;45.04
8051;BME280;4068;42.158;24.732;2022-09-01T13:47:40;99044.97;;;31.67;45.84
8051;BME280;4068;42.158;24.732;2022-09-01T13:50:07;99041.13;;;31.53;46.83
8051;BME280;4068;42.158;24.732;2022-09-01T13:52:33;99017.00;;;31.34;46.27
8051;BME280;4068;42.158;24.732;2022-09-01T13:54:58;99038.91;;;31.44;45.75
8051;BME280;4068;42.158;24.732;2022-09-01T13:57:25;99014.00;;;31.36;45.65
8051;BME280;4068;42.158;24.732;2022-09-01T13:59:51;99014.28;;;31.34;45.14
8051;BME280;4068;42.158;24.732;2022-09-01T14:02:17;99039.16;;;31.32;45.43
8051;BME280;4068;42.158;24.732;2022-09-01T14:04:42;99042.75;;;31.23;45.62
8051;BME280;4068;42.158;24.732;2022-09-01T14:07:07;99033.41;;;31.13;46.12
8051;BME280;4068;42.158;24.732;2022-09-01T14:09:33;99025.78;;;31.26;45.78
8051;BME280;4068;42.158;24.732;2022-09-01T14:11:59;99024.94;;;31.30;45.84
8051;BME280;4068;42.158;24.732;2022-09-01T14:14:24;99007.41;;;31.26;45.74
8051;BME280;4068;42.158;24.732;2022-09-01T14:16:51;99030.13;;;31.42;45.72
8051;BME280;4068;42.158;24.732;2022-09-01T14:19:16;99029.06;;;31.48;45.02
8051;BME280;4068;42.158;24.732;2022-09-01T14:21:42;99020.88;;;31.59;45.18
8051;BME280;4068;42.158;24.732;2022-09-01T14:24:08;99023.59;;;31.59;44.85
8051;BME280;4068;42.158;24.732;2022-09-01T14:26:34;99025.53;;;31.58;44.83